Dyess AFB, Texas
Current Conditions -  °F | °C
As of 12:58 AM on Friday 28 Nov 2014 (Local Time) from KDYS Reporting Station
Clear Clear  
Wind Chill:   Ceiling: Unl
Heat Index: 10°   Visibility: 10mi
Dew Point:   Wind: 15mph
Humidity: 53%   Direction: 190°S
Pressure: 30.25"   Gusts: 21mph
Location:  32.42°N, 99.82°W
Report Text: KDYS 280658Z AUTO 19013G18KT 10SM CLR 10/01 A3025 RMK AO2 SLP232 T00990006 $
Loading
Personal Weather Stations






























Interactive Weather Map New forecast layout! Learn more

10-Day Weather Forecast

Advertisements
Track Severe Weather on mobile